createdAt,value
2023-05-13T00:01:16.817Z,100413.09
2023-05-13T00:06:20.606Z,100421.94
2023-05-13T00:11:24.976Z,100428.22
2023-05-13T00:16:28.807Z,100425.91
2023-05-13T00:21:32.179Z,100422.28
2023-05-13T00:26:36.674Z,100422.22
2023-05-13T00:31:39.809Z,100433.72
2023-05-13T00:36:42.606Z,100428.44
2023-05-13T00:41:47.191Z,100430.25
2023-05-13T00:46:50.908Z,100429.34
2023-05-13T00:51:55.216Z,100425.09
2023-05-13T00:56:59.487Z,100425.47
2023-05-13T01:02:12.177Z,100425.50
2023-05-13T01:07:26.222Z,100415.06
2023-05-13T01:12:34.360Z,100422.72
2023-05-13T01:17:43.722Z,100426.06
2023-05-13T01:22:48.264Z,100437.03
2023-05-13T01:27:51.750Z,100439.03
2023-05-13T01:32:56.700Z,100441.25
2023-05-13T01:38:03.426Z,100434.13
2023-05-13T01:43:06.500Z,100435.63
2023-05-13T01:48:09.329Z,100450.66
2023-05-13T01:53:19.624Z,100441.19
2023-05-13T01:58:23.727Z,100443.19
2023-05-13T02:03:26.660Z,100453.53
2023-05-13T02:08:31.005Z,100450.34
2023-05-13T02:13:33.937Z,100447.88
2023-05-13T02:18:36.859Z,100445.50
2023-05-13T02:23:41.007Z,100450.19
2023-05-13T02:28:44.450Z,100450.94
2023-05-13T02:33:49.911Z,100452.19
2023-05-13T02:38:54.537Z,100441.00
2023-05-13T02:43:57.651Z,100443.44
2023-05-13T02:49:01.075Z,100440.13
2023-05-13T02:54:08.311Z,100438.91
2023-05-13T02:59:11.203Z,100430.41
2023-05-13T03:04:14.371Z,100436.06
2023-05-13T03:09:18.509Z,100442.09
2023-05-13T03:14:21.327Z,100439.53
2023-05-13T03:19:25.046Z,100442.34
2023-05-13T03:24:29.360Z,100452.56
2023-05-13T03:29:32.525Z,100452.06
2023-05-13T03:34:36.251Z,100457.97
2023-05-13T03:39:40.884Z,100462.69
2023-05-13T03:44:43.930Z,100462.47
2023-05-13T03:49:48.806Z,100464.91
2023-05-13T03:54:53.045Z,100465.03
2023-05-13T03:59:55.961Z,100463.44
2023-05-13T04:04:58.801Z,100463.81
2023-05-13T04:10:03.415Z,100469.34
2023-05-13T04:15:07.560Z,100463.94
2023-05-13T04:20:10.840Z,100477.91
2023-05-13T04:25:15.128Z,100475.19
2023-05-13T04:30:18.020Z,100478.38
2023-05-13T04:35:22.147Z,100480.97
2023-05-13T04:40:30.775Z,100488.97
2023-05-13T04:45:38.579Z,100493.38
2023-05-13T04:50:46.437Z,100498.94
2023-05-13T04:55:52.412Z,100503.34
2023-05-13T05:00:55.225Z,100503.34
2023-05-13T05:05:57.972Z,100505.19
2023-05-13T05:11:02.834Z,100504.94
2023-05-13T05:16:08.651Z,100513.31
2023-05-13T05:21:12.940Z,100525.72
2023-05-13T05:26:17.175Z,100529.41
2023-05-13T05:31:20.238Z,100527.47
2023-05-13T05:36:23.818Z,100531.13
2023-05-13T05:41:28.083Z,100536.53
2023-05-13T05:46:31.494Z,100533.81
2023-05-13T05:51:35.537Z,100530.38
2023-05-13T05:56:41.363Z,100534.81
2023-05-13T06:01:44.259Z,100536.53
2023-05-13T06:06:47.056Z,100526.56
2023-05-13T06:11:51.501Z,100531.97
2023-05-13T06:16:55.852Z,100531.97
2023-05-13T06:21:58.983Z,100528.31
2023-05-13T06:27:03.345Z,100540.88
2023-05-13T06:32:07.270Z,100530.91
2023-05-13T06:37:10.081Z,100541.59
2023-05-13T06:42:14.475Z,100542.47
2023-05-13T06:47:23.728Z,100528.84
2023-05-13T06:52:27.196Z,100535.09
2023-05-13T06:57:41.833Z,100540.38
2023-05-13T07:02:45.783Z,100547.50
2023-05-13T07:07:48.520Z,100539.56
2023-05-13T07:12:52.770Z,100536.47
2023-05-13T07:17:55.736Z,100535.47
2023-05-13T07:22:58.727Z,100543.63
2023-05-13T07:28:02.971Z,100527.84
2023-05-13T07:33:05.978Z,100530.00
2023-05-13T07:38:11.006Z,100526.13
2023-05-13T07:43:17.817Z,100522.69
2023-05-13T07:48:20.877Z,100526.13
2023-05-13T07:53:23.787Z,100525.59
2023-05-13T07:58:27.917Z,100522.59
2023-05-13T08:03:30.864Z,100525.16
2023-05-13T08:08:33.745Z,100520.41
2023-05-13T08:13:38.445Z,100523.63
2023-05-13T08:18:41.333Z,100525.66
2023-05-13T08:23:45.854Z,100533.09
2023-05-13T08:28:53.850Z,100525.00
2023-05-13T08:33:57.671Z,100534.19
2023-05-13T08:39:01.404Z,100530.25
2023-05-13T08:44:06.684Z,100525.38
2023-05-13T08:49:10.952Z,100529.03
2023-05-13T08:54:16.482Z,100528.03
2023-05-13T08:59:20.656Z,100523.88
2023-05-13T09:04:23.620Z,100523.66
2023-05-13T09:09:26.462Z,100522.53
2023-05-13T09:14:32.599Z,100520.59
2023-05-13T09:19:36.847Z,100517.63
2023-05-13T09:24:39.866Z,100519.38
2023-05-13T09:29:43.973Z,100517.41
2023-05-13T09:34:49.006Z,100527.97
2023-05-13T09:39:53.515Z,100517.06
2023-05-13T09:44:57.712Z,100505.38
2023-05-13T09:50:03.531Z,100494.44
2023-05-13T09:55:10.248Z,100504.16
2023-05-13T10:00:28.973Z,100508.69
2023-05-13T10:05:35.797Z,100494.94
2023-05-13T10:10:39.244Z,100497.66
2023-05-13T10:15:50.248Z,100497.53
2023-05-13T10:20:54.066Z,100502.41
2023-05-13T10:26:04.045Z,100507.41
2023-05-13T10:31:08.392Z,100481.38
2023-05-13T10:36:25.930Z,100497.69
2023-05-13T10:41:55.642Z,100482.38
2023-05-13T10:47:00.025Z,100497.72
2023-05-13T10:52:06.241Z,100482.13
2023-05-13T10:57:09.904Z,100480.63
2023-05-13T11:02:24.192Z,100483.72
2023-05-13T11:07:30.175Z,100481.03
2023-05-13T11:12:33.046Z,100475.13
2023-05-13T11:17:38.129Z,100491.31
2023-05-13T11:22:42.785Z,100495.97
2023-05-13T11:27:47.626Z,100498.19
2023-05-13T11:32:56.719Z,100485.44
2023-05-13T11:38:01.667Z,100475.97
2023-05-13T11:43:05.996Z,100483.69
2023-05-13T11:48:22.213Z,100474.78
2023-05-13T11:53:25.108Z,100469.88
2023-05-13T11:58:27.880Z,100476.19
2023-05-13T12:03:32.135Z,100480.63
2023-05-13T12:08:35.167Z,100468.72
2023-05-13T12:13:38.067Z,100474.41
2023-05-13T12:18:42.440Z,100467.16
2023-05-13T12:23:46.822Z,100470.53
2023-05-13T12:28:49.672Z,100472.13
2023-05-13T12:33:54.093Z,100471.63
2023-05-13T12:39:00.687Z,100479.63
2023-05-13T12:44:05.687Z,100488.38
2023-05-13T12:49:12.097Z,100491.53
2023-05-13T12:54:14.916Z,100497.09
2023-05-13T12:59:19.123Z,100497.72
2023-05-13T13:04:23.402Z,100497.59
2023-05-13T13:09:26.268Z,100497.09
2023-05-13T13:14:29.317Z,100492.53
2023-05-13T13:19:33.479Z,100504.34
2023-05-13T13:24:36.356Z,100497.72
2023-05-13T13:29:39.160Z,100501.28
2023-05-13T13:34:43.432Z,100507.44
2023-05-13T13:39:46.164Z,100507.19
2023-05-13T13:44:49.315Z,100508.69
2023-05-13T13:49:53.708Z,100504.13
2023-05-13T13:54:56.567Z,100491.44
2023-05-13T13:59:59.492Z,100499.56
2023-05-13T14:05:03.825Z,100496.97
2023-05-13T14:10:08.032Z,100504.84
2023-05-13T14:15:11.956Z,100507.69
2023-05-13T14:20:16.174Z,100498.06
2023-05-13T14:25:18.984Z,100497.72
2023-05-13T14:30:22.963Z,100498.69
2023-05-13T14:35:27.453Z,100500.56
2023-05-13T14:40:30.598Z,100500.66
2023-05-13T14:45:33.713Z,100504.88
2023-05-13T14:50:39.369Z,100500.41
2023-05-13T14:55:43.385Z,100498.69
2023-05-13T15:00:46.240Z,100494.03
2023-05-13T15:05:51.611Z,100497.59
2023-05-13T15:10:54.424Z,100499.47
2023-05-13T15:15:57.251Z,100496.50
2023-05-13T15:21:02.591Z,100503.50
2023-05-13T15:26:05.730Z,100509.13
2023-05-13T15:31:08.668Z,100503.25
2023-05-13T15:36:13.081Z,100507.31
2023-05-13T15:41:15.859Z,100508.28
2023-05-13T15:46:19.103Z,100502.38
2023-05-13T15:51:23.311Z,100498.06
2023-05-13T15:56:26.236Z,100495.50
2023-05-13T16:01:29.081Z,100495.59
2023-05-13T16:06:33.325Z,100503.84
2023-05-13T16:11:36.149Z,100499.81
2023-05-13T16:16:38.991Z,100495.16
2023-05-13T16:21:43.199Z,100496.88
2023-05-13T16:26:46.384Z,100493.38
2023-05-13T16:31:49.486Z,100491.19
2023-05-13T16:36:53.664Z,100503.13
2023-05-13T16:41:56.622Z,100500.16
2023-05-13T16:46:59.408Z,100494.88
2023-05-13T16:52:03.757Z,100487.50
2023-05-13T16:57:06.944Z,100484.69
2023-05-13T17:02:10.059Z,100488.25
2023-05-13T17:07:14.237Z,100490.69
2023-05-13T17:12:17.189Z,100486.13
2023-05-13T17:17:20.075Z,100487.38
2023-05-13T17:22:24.243Z,100487.50
2023-05-13T17:27:27.326Z,100484.53
2023-05-13T17:32:31.735Z,100488.97
2023-05-13T17:37:35.893Z,100487.97
2023-05-13T17:42:38.780Z,100497.72
2023-05-13T17:47:41.748Z,100496.22
2023-05-13T17:52:46.546Z,100496.22
2023-05-13T17:57:49.417Z,100501.41
2023-05-13T18:02:52.292Z,100499.06
2023-05-13T18:07:56.696Z,100500.94
2023-05-13T18:12:59.561Z,100509.16
2023-05-13T18:18:03.784Z,100506.72
2023-05-13T18:23:08.155Z,100515.94
2023-05-13T18:28:11.132Z,100529.47
2023-05-13T18:33:14.047Z,100518.91
2023-05-13T18:38:18.227Z,100515.47
2023-05-13T18:43:21.390Z,100524.69
2023-05-13T18:48:25.019Z,100527.00
2023-05-13T18:53:29.619Z,100527.88
2023-05-13T18:58:32.424Z,100528.72
2023-05-13T19:03:36.339Z,100527.75
2023-05-13T19:08:40.608Z,100529.34
2023-05-13T19:13:47.363Z,100530.84
2023-05-13T19:18:50.748Z,100528.88
2023-05-13T19:23:54.924Z,100548.44
2023-05-13T19:28:57.990Z,100544.38
2023-05-13T19:34:01.388Z,100544.13
2023-05-13T19:39:05.850Z,100545.34
2023-05-13T19:44:08.830Z,100544.25
2023-05-13T19:49:11.656Z,100535.75
2023-05-13T19:54:15.853Z,100543.75
2023-05-13T19:59:18.964Z,100545.81
2023-05-13T20:04:21.797Z,100551.00
2023-05-13T20:09:26.813Z,100543.75
2023-05-13T20:14:43.963Z,100546.28
2023-05-13T20:19:47.473Z,100549.84
2023-05-13T20:24:54.335Z,100550.72
2023-05-13T20:29:57.155Z,100544.44
2023-05-13T20:34:59.985Z,100548.63
2023-05-13T20:40:05.294Z,100545.91
2023-05-13T20:45:09.335Z,100547.38
2023-05-13T20:50:13.235Z,100546.00
2023-05-13T20:55:17.781Z,100528.47
2023-05-13T21:00:21.338Z,100534.38
2023-05-13T21:05:24.448Z,100532.41
2023-05-13T21:10:28.827Z,100532.13
2023-05-13T21:15:31.683Z,100530.16
2023-05-13T21:20:34.653Z,100530.50
2023-05-13T21:25:38.863Z,100532.22
2023-05-13T21:30:41.632Z,100532.53
2023-05-13T21:35:44.393Z,100530.56
2023-05-13T21:40:48.555Z,100538.16
2023-05-13T21:45:51.685Z,100532.50
2023-05-13T21:50:54.568Z,100531.50
2023-05-13T21:56:00.178Z,100526.06
2023-05-13T22:01:03.158Z,100531.25
2023-05-13T22:06:06.254Z,100531.97
2023-05-13T22:11:11.359Z,100524.44
2023-05-13T22:16:14.545Z,100523.19
2023-05-13T22:21:17.392Z,100518.50
2023-05-13T22:26:21.812Z,100511.91
2023-05-13T22:31:25.668Z,100515.38
2023-05-13T22:36:28.493Z,100512.00
2023-05-13T22:41:32.729Z,100509.41
2023-05-13T22:46:35.615Z,100507.41
2023-05-13T22:51:38.448Z,100510.00
2023-05-13T22:56:42.675Z,100511.44
2023-05-13T23:01:45.697Z,100507.03
2023-05-13T23:06:48.495Z,100506.72
2023-05-13T23:11:52.547Z,100497.72
2023-05-13T23:16:55.315Z,100499.91
2023-05-13T23:21:58.156Z,100505.22
2023-05-13T23:27:02.286Z,100506.34
2023-05-13T23:32:06.940Z,100499.66
2023-05-13T23:37:10.149Z,100491.03
2023-05-13T23:42:14.390Z,100486.63
2023-05-13T23:47:17.184Z,100486.75
2023-05-13T23:52:19.973Z,100484.44
2023-05-13T23:57:24.262Z,100480.88
